sensor_id;sensor_type;location;lat;lon;timestamp;pressure;altitude;pressure_sealevel;temperature;humidity
6028;BME280;3042;43.194;27.646;2023-04-06T00:01:27;100896.78;;;10.52;100.00
6028;BME280;3042;43.194;27.646;2023-04-06T00:03:56;101360.66;;;13.27;100.00
6028;BME280;3042;43.194;27.646;2023-04-06T00:06:23;101352.91;;;13.29;100.00
6028;BME280;3042;43.194;27.646;2023-04-06T00:08:50;101356.66;;;13.36;100.00
6028;BME280;3042;43.194;27.646;2023-04-06T00:11:17;101227.03;;;12.58;100.00
6028;BME280;3042;43.194;27.646;2023-04-06T00:13:45;101287.13;;;12.88;100.00
6028;BME280;3042;43.194;27.646;2023-04-06T00:16:12;101333.94;;;13.30;100.00
6028;BME280;3042;43.194;27.646;2023-04-06T00:18:40;101347.81;;;13.51;100.00
6028;BME280;3042;43.194;27.646;2023-04-06T00:21:11;101333.88;;;13.70;100.00
6028;BME280;3042;43.194;27.646;2023-04-06T00:23:39;101335.25;;;13.62;100.00
6028;BME280;3042;43.194;27.646;2023-04-06T00:26:07;101328.19;;;13.58;100.00
6028;BME280;3042;43.194;27.646;2023-04-06T00:28:34;101326.56;;;13.60;100.00
6028;BME280;3042;43.194;27.646;2023-04-06T00:31:01;101345.19;;;13.30;100.00
6028;BME280;3042;43.194;27.646;2023-04-06T00:33:29;101257.50;;;13.23;100.00
6028;BME280;3042;43.194;27.646;2023-04-06T00:35:56;101323.63;;;13.73;100.00
6028;BME280;3042;43.194;27.646;2023-04-06T00:38:25;101312.97;;;13.88;100.00
6028;BME280;3042;43.194;27.646;2023-04-06T00:40:52;101203.41;;;13.33;100.00
6028;BME280;3042;43.194;27.646;2023-04-06T00:43:19;101302.00;;;13.96;100.00
6028;BME280;3042;43.194;27.646;2023-04-06T00:45:46;101301.16;;;13.97;100.00
6028;BME280;3042;43.194;27.646;2023-04-06T00:48:13;101293.56;;;14.01;100.00
6028;BME280;3042;43.194;27.646;2023-04-06T00:50:41;101301.41;;;14.03;100.00
6028;BME280;3042;43.194;27.646;2023-04-06T00:53:09;101309.78;;;13.96;100.00
6028;BME280;3042;43.194;27.646;2023-04-06T00:55:38;101305.91;;;13.86;100.00
6028;BME280;3042;43.194;27.646;2023-04-06T00:58:06;101301.59;;;13.43;100.00
6028;BME280;3042;43.194;27.646;2023-04-06T01:00:33;101337.09;;;13.24;100.00
6028;BME280;3042;43.194;27.646;2023-04-06T01:03:00;101012.72;;;11.19;100.00
6028;BME280;3042;43.194;27.646;2023-04-06T01:05:27;101336.19;;;13.03;100.00
6028;BME280;3042;43.194;27.646;2023-04-06T01:07:55;101313.66;;;12.63;100.00
6028;BME280;3042;43.194;27.646;2023-04-06T01:10:25;101331.28;;;13.09;100.00
6028;BME280;3042;43.194;27.646;2023-04-06T01:12:54;100874.06;;;10.45;100.00
6028;BME280;3042;43.194;27.646;2023-04-06T01:15:21;101322.53;;;13.07;100.00
6028;BME280;3042;43.194;27.646;2023-04-06T01:17:49;101326.44;;;12.97;100.00
6028;BME280;3042;43.194;27.646;2023-04-06T01:20:16;101317.88;;;13.00;100.00
6028;BME280;3042;43.194;27.646;2023-04-06T01:22:45;101209.91;;;12.42;100.00
6028;BME280;3042;43.194;27.646;2023-04-06T01:25:12;101320.13;;;13.12;100.00
6028;BME280;3042;43.194;27.646;2023-04-06T01:27:39;101304.31;;;13.26;100.00
6028;BME280;3042;43.194;27.646;2023-04-06T01:30:07;101253.56;;;13.12;100.00
6028;BME280;3042;43.194;27.646;2023-04-06T01:32:34;101281.97;;;13.28;100.00
6028;BME280;3042;43.194;27.646;2023-04-06T01:35:01;101283.72;;;13.29;100.00
6028;BME280;3042;43.194;27.646;2023-04-06T01:37:29;100947.75;;;11.11;100.00
6028;BME280;3042;43.194;27.646;2023-04-06T01:39:59;101293.81;;;13.23;100.00
6028;BME280;3042;43.194;27.646;2023-04-06T01:42:27;101301.78;;;13.07;100.00
6028;BME280;3042;43.194;27.646;2023-04-06T01:44:55;101296.50;;;13.05;100.00
6028;BME280;3042;43.194;27.646;2023-04-06T01:47:23;101299.47;;;12.94;100.00
6028;BME280;3042;43.194;27.646;2023-04-06T01:49:50;101307.38;;;12.77;100.00
6028;BME280;3042;43.194;27.646;2023-04-06T01:52:17;101319.25;;;12.72;100.00
6028;BME280;3042;43.194;27.646;2023-04-06T01:54:45;101313.53;;;12.60;100.00
6028;BME280;3042;43.194;27.646;2023-04-06T01:57:13;101085.19;;;11.01;100.00
6028;BME280;3042;43.194;27.646;2023-04-06T01:59:40;100842.03;;;9.69;100.00
6028;BME280;3042;43.194;27.646;2023-04-06T02:02:08;101308.06;;;12.54;100.00
6028;BME280;3042;43.194;27.646;2023-04-06T02:04:35;101281.91;;;12.30;100.00
6028;BME280;3042;43.194;27.646;2023-04-06T02:07:02;101310.91;;;12.40;100.00
6028;BME280;3042;43.194;27.646;2023-04-06T02:09:29;101314.31;;;12.39;100.00
6028;BME280;3042;43.194;27.646;2023-04-06T02:11:56;101304.69;;;12.37;100.00
6028;BME280;3042;43.194;27.646;2023-04-06T02:14:25;101310.34;;;12.28;100.00
6028;BME280;3042;43.194;27.646;2023-04-06T02:16:53;101309.34;;;12.07;100.00
6028;BME280;3042;43.194;27.646;2023-04-06T02:19:20;101291.88;;;12.02;100.00
6028;BME280;3042;43.194;27.646;2023-04-06T02:21:48;101309.16;;;11.68;100.00
6028;BME280;3042;43.194;27.646;2023-04-06T02:24:15;101282.81;;;11.58;100.00
6028;BME280;3042;43.194;27.646;2023-04-06T02:26:50;101293.50;;;11.82;100.00
6028;BME280;3042;43.194;27.646;2023-04-06T02:29:26;101298.50;;;11.61;100.00
6028;BME280;3042;43.194;27.646;2023-04-06T02:31:54;101300.50;;;11.67;100.00
6028;BME280;3042;43.194;27.646;2023-04-06T02:34:21;101310.31;;;11.56;100.00
6028;BME280;3042;43.194;27.646;2023-04-06T02:36:48;101316.81;;;11.48;100.00
6028;BME280;3042;43.194;27.646;2023-04-06T02:39:15;101062.97;;;10.02;100.00
6028;BME280;3042;43.194;27.646;2023-04-06T02:41:42;100845.50;;;8.70;100.00
6028;BME280;3042;43.194;27.646;2023-04-06T02:44:10;101331.53;;;11.49;100.00
6028;BME280;3042;43.194;27.646;2023-04-06T02:46:38;101301.31;;;11.84;100.00
6028;BME280;3042;43.194;27.646;2023-04-06T02:49:06;101311.59;;;11.65;100.00
6028;BME280;3042;43.194;27.646;2023-04-06T02:51:33;101309.53;;;11.57;100.00
6028;BME280;3042;43.194;27.646;2023-04-06T02:54:00;101307.66;;;11.73;100.00
6028;BME280;3042;43.194;27.646;2023-04-06T02:56:27;101307.38;;;11.67;100.00
6028;BME280;3042;43.194;27.646;2023-04-06T02:58:54;101310.34;;;11.74;100.00
6028;BME280;3042;43.194;27.646;2023-04-06T03:01:22;101284.88;;;11.66;100.00
6028;BME280;3042;43.194;27.646;2023-04-06T03:03:50;101301.50;;;11.87;100.00
6028;BME280;3042;43.194;27.646;2023-04-06T03:06:17;101316.13;;;11.69;100.00
6028;BME280;3042;43.194;27.646;2023-04-06T03:08:45;101328.69;;;11.79;100.00
6028;BME280;3042;43.194;27.646;2023-04-06T03:11:12;101310.03;;;11.86;100.00
6028;BME280;3042;43.194;27.646;2023-04-06T03:13:39;101313.88;;;11.76;100.00
6028;BME280;3042;43.194;27.646;2023-04-06T03:16:07;101302.66;;;11.76;100.00
6028;BME280;3042;43.194;27.646;2023-04-06T03:18:34;101313.97;;;11.78;100.00
6028;BME280;3042;43.194;27.646;2023-04-06T03:21:03;101122.97;;;10.63;100.00
6028;BME280;3042;43.194;27.646;2023-04-06T03:23:30;101314.50;;;11.71;100.00
6028;BME280;3042;43.194;27.646;2023-04-06T03:25:57;101315.66;;;11.59;100.00
6028;BME280;3042;43.194;27.646;2023-04-06T03:28:24;100972.78;;;9.54;100.00
6028;BME280;3042;43.194;27.646;2023-04-06T03:30:51;101008.16;;;9.73;100.00
6028;BME280;3042;43.194;27.646;2023-04-06T03:33:18;101346.22;;;11.67;100.00
6028;BME280;3042;43.194;27.646;2023-04-06T03:35:46;101327.63;;;11.57;100.00
6028;BME280;3042;43.194;27.646;2023-04-06T03:38:14;101247.16;;;11.35;100.00
6028;BME280;3042;43.194;27.646;2023-04-06T03:40:41;101277.19;;;11.49;100.00
6028;BME280;3042;43.194;27.646;2023-04-06T03:43:09;101313.75;;;11.73;100.00
6028;BME280;3042;43.194;27.646;2023-04-06T03:45:36;101281.94;;;11.76;100.00
6028;BME280;3042;43.194;27.646;2023-04-06T03:48:03;101311.22;;;11.75;100.00
6028;BME280;3042;43.194;27.646;2023-04-06T03:50:30;101297.34;;;12.09;100.00
6028;BME280;3042;43.194;27.646;2023-04-06T03:52:58;101292.31;;;12.12;100.00
6028;BME280;3042;43.194;27.646;2023-04-06T03:55:28;101290.97;;;12.20;100.00
6028;BME280;3042;43.194;27.646;2023-04-06T03:57:56;101207.09;;;11.62;100.00
6028;BME280;3042;43.194;27.646;2023-04-06T04:00:23;101298.03;;;12.24;100.00
6028;BME280;3042;43.194;27.646;2023-04-06T04:02:50;101309.91;;;12.19;100.00
6028;BME280;3042;43.194;27.646;2023-04-06T04:05:17;101298.66;;;12.18;100.00
6028;BME280;3042;43.194;27.646;2023-04-06T04:07:44;101305.78;;;12.22;100.00
6028;BME280;3042;43.194;27.646;2023-04-06T04:10:12;101308.72;;;12.12;100.00
6028;BME280;3042;43.194;27.646;2023-04-06T04:12:40;101307.75;;;12.28;100.00
6028;BME280;3042;43.194;27.646;2023-04-06T04:15:08;101298.75;;;12.39;100.00
6028;BME280;3042;43.194;27.646;2023-04-06T04:17:35;101178.84;;;11.49;100.00
6028;BME280;3042;43.194;27.646;2023-04-06T04:20:03;101236.50;;;12.00;100.00
6028;BME280;3042;43.194;27.646;2023-04-06T04:22:30;101302.16;;;12.38;100.00
6028;BME280;3042;43.194;27.646;2023-04-06T04:24:58;101312.13;;;12.29;100.00
6028;BME280;3042;43.194;27.646;2023-04-06T04:27:25;101301.34;;;12.39;100.00
6028;BME280;3042;43.194;27.646;2023-04-06T04:29:54;101239.28;;;12.23;100.00
6028;BME280;3042;43.194;27.646;2023-04-06T04:32:21;101074.66;;;11.34;100.00
6028;BME280;3042;43.194;27.646;2023-04-06T04:34:48;101298.84;;;12.41;100.00
6028;BME280;3042;43.194;27.646;2023-04-06T04:37:15;101189.63;;;11.58;100.00
6028;BME280;3042;43.194;27.646;2023-04-06T04:39:44;101294.91;;;12.31;100.00
6028;BME280;3042;43.194;27.646;2023-04-06T04:42:11;101308.94;;;12.17;100.00
6028;BME280;3042;43.194;27.646;2023-04-06T04:44:39;101325.56;;;11.86;100.00
6028;BME280;3042;43.194;27.646;2023-04-06T04:47:07;101316.00;;;12.01;100.00
6028;BME280;3042;43.194;27.646;2023-04-06T04:49:34;101242.28;;;11.77;100.00
6028;BME280;3042;43.194;27.646;2023-04-06T04:52:01;101319.38;;;12.00;100.00
6028;BME280;3042;43.194;27.646;2023-04-06T04:54:29;101288.75;;;12.10;100.00
6028;BME280;3042;43.194;27.646;2023-04-06T04:56:56;101310.13;;;12.06;100.00
6028;BME280;3042;43.194;27.646;2023-04-06T04:59:24;101325.53;;;12.02;100.00
6028;BME280;3042;43.194;27.646;2023-04-06T05:01:52;101317.97;;;12.07;100.00
6028;BME280;3042;43.194;27.646;2023-04-06T05:04:22;101300.44;;;11.83;100.00
6028;BME280;3042;43.194;27.646;2023-04-06T05:06:49;101132.97;;;10.57;100.00
6028;BME280;3042;43.194;27.646;2023-04-06T05:09:16;101321.31;;;12.04;100.00
6028;BME280;3042;43.194;27.646;2023-04-06T05:11:44;101276.91;;;11.43;100.00
6028;BME280;3042;43.194;27.646;2023-04-06T05:14:11;101327.19;;;11.84;100.00
6028;BME280;3042;43.194;27.646;2023-04-06T05:16:38;101319.47;;;12.02;100.00
6028;BME280;3042;43.194;27.646;2023-04-06T05:19:05;101312.88;;;12.09;100.00
6028;BME280;3042;43.194;27.646;2023-04-06T05:21:34;101241.25;;;11.55;100.00
6028;BME280;3042;43.194;27.646;2023-04-06T05:24:01;101317.91;;;12.06;100.00
6028;BME280;3042;43.194;27.646;2023-04-06T05:26:29;101319.09;;;12.12;100.00
6028;BME280;3042;43.194;27.646;2023-04-06T05:28:56;101309.78;;;12.16;100.00
6028;BME280;3042;43.194;27.646;2023-04-06T05:31:23;101290.75;;;12.15;100.00
6028;BME280;3042;43.194;27.646;2023-04-06T05:33:50;101309.91;;;12.19;100.00
6028;BME280;3042;43.194;27.646;2023-04-06T05:36:18;101308.41;;;12.24;100.00
6028;BME280;3042;43.194;27.646;2023-04-06T05:38:47;101305.59;;;12.19;100.00
6028;BME280;3042;43.194;27.646;2023-04-06T05:41:15;101307.41;;;12.20;100.00
6028;BME280;3042;43.194;27.646;2023-04-06T05:43:43;101297.13;;;12.41;100.00
6028;BME280;3042;43.194;27.646;2023-04-06T05:46:10;101292.69;;;12.39;100.00
6028;BME280;3042;43.194;27.646;2023-04-06T05:48:37;101295.84;;;12.32;100.00
6028;BME280;3042;43.194;27.646;2023-04-06T05:51:04;101284.75;;;12.36;100.00
6028;BME280;3042;43.194;27.646;2023-04-06T05:53:32;101287.84;;;12.27;100.00
6028;BME280;3042;43.194;27.646;2023-04-06T05:56:02;101249.94;;;12.29;100.00
6028;BME280;3042;43.194;27.646;2023-04-06T05:58:30;101276.88;;;12.33;100.00
6028;BME280;3042;43.194;27.646;2023-04-06T06:00:57;101265.47;;;12.68;100.00
6028;BME280;3042;43.194;27.646;2023-04-06T06:03:24;101263.22;;;12.76;100.00
6028;BME280;3042;43.194;27.646;2023-04-06T06:05:52;101240.66;;;13.14;100.00
6028;BME280;3042;43.194;27.646;2023-04-06T06:08:19;101106.63;;;12.51;100.00
6028;BME280;3042;43.194;27.646;2023-04-06T06:10:46;101046.56;;;12.40;100.00
6028;BME280;3042;43.194;27.646;2023-04-06T06:13:15;101211.91;;;13.72;100.00
6028;BME280;3042;43.194;27.646;2023-04-06T06:15:42;101224.69;;;13.90;100.00
6028;BME280;3042;43.194;27.646;2023-04-06T06:18:10;101197.44;;;14.25;100.00
6028;BME280;3042;43.194;27.646;2023-04-06T06:20:38;101103.34;;;14.10;100.00
6028;BME280;3042;43.194;27.646;2023-04-06T06:23:05;101192.50;;;14.81;100.00
6028;BME280;3042;43.194;27.646;2023-04-06T06:25:32;101193.69;;;14.91;100.00
6028;BME280;3042;43.194;27.646;2023-04-06T06:28:02;101188.09;;;15.04;100.00
6028;BME280;3042;43.194;27.646;2023-04-06T06:30:33;101186.59;;;15.11;98.48
6028;BME280;3042;43.194;27.646;2023-04-06T06:33:00;100802.81;;;13.06;98.57
6028;BME280;3042;43.194;27.646;2023-04-06T06:35:28;101196.47;;;14.95;96.08
6028;BME280;3042;43.194;27.646;2023-04-06T06:37:56;101189.81;;;15.31;96.71
6028;BME280;3042;43.194;27.646;2023-04-06T06:40:23;101200.72;;;15.19;97.85
6028;BME280;3042;43.194;27.646;2023-04-06T06:42:51;101203.56;;;14.99;96.39
6028;BME280;3042;43.194;27.646;2023-04-06T06:45:18;100903.50;;;13.41;97.92
6028;BME280;3042;43.194;27.646;2023-04-06T06:47:47;101201.97;;;15.30;96.77
6028;BME280;3042;43.194;27.646;2023-04-06T06:50:15;101179.91;;;15.46;94.12
6028;BME280;3042;43.194;27.646;2023-04-06T06:52:42;101189.88;;;15.32;92.97
6028;BME280;3042;43.194;27.646;2023-04-06T06:55:10;101190.59;;;15.28;95.27
6028;BME280;3042;43.194;27.646;2023-04-06T06:57:38;101180.88;;;15.50;99.39
6028;BME280;3042;43.194;27.646;2023-04-06T07:00:08;101183.63;;;15.54;98.81
6028;BME280;3042;43.194;27.646;2023-04-06T07:02:36;101177.31;;;15.73;97.65
6028;BME280;3042;43.194;27.646;2023-04-06T07:05:05;101168.06;;;15.85;97.03
6028;BME280;3042;43.194;27.646;2023-04-06T07:07:33;101172.13;;;15.75;93.86
6028;BME280;3042;43.194;27.646;2023-04-06T07:10:00;101172.81;;;15.69;94.52
6028;BME280;3042;43.194;27.646;2023-04-06T07:12:27;101174.28;;;15.61;94.49
6028;BME280;3042;43.194;27.646;2023-04-06T07:14:55;101159.44;;;15.86;96.93
6028;BME280;3042;43.194;27.646;2023-04-06T07:17:23;101031.78;;;14.99;97.29
6028;BME280;3042;43.194;27.646;2023-04-06T07:19:51;101171.53;;;15.56;94.60
6028;BME280;3042;43.194;27.646;2023-04-06T07:22:24;101167.22;;;15.57;93.24
6028;BME280;3042;43.194;27.646;2023-04-06T07:24:54;101170.06;;;15.65;91.62
6028;BME280;3042;43.194;27.646;2023-04-06T07:27:21;101160.31;;;15.59;93.73
6028;BME280;3042;43.194;27.646;2023-04-06T07:29:48;101149.53;;;16.04;94.95
6028;BME280;3042;43.194;27.646;2023-04-06T07:32:18;101141.00;;;16.10;92.85
6028;BME280;3042;43.194;27.646;2023-04-06T07:34:50;101149.09;;;15.89;91.77
6028;BME280;3042;43.194;27.646;2023-04-06T07:37:17;101156.16;;;15.93;93.59
6028;BME280;3042;43.194;27.646;2023-04-06T07:39:45;101146.00;;;16.02;92.84
6028;BME280;3042;43.194;27.646;2023-04-06T07:42:13;101146.09;;;16.05;93.51
6028;BME280;3042;43.194;27.646;2023-04-06T07:44:40;101027.53;;;15.02;90.31
6028;BME280;3042;43.194;27.646;2023-04-06T07:47:09;101134.75;;;16.35;90.31
6028;BME280;3042;43.194;27.646;2023-04-06T07:49:37;101038.03;;;15.63;90.41
6028;BME280;3042;43.194;27.646;2023-04-06T07:52:05;101123.81;;;16.50;93.52
6028;BME280;3042;43.194;27.646;2023-04-06T07:54:33;101108.38;;;16.57;92.69
6028;BME280;3042;43.194;27.646;2023-04-06T07:57:06;101115.25;;;16.87;89.44
6028;BME280;3042;43.194;27.646;2023-04-06T07:59:34;101118.72;;;16.87;88.88
6028;BME280;3042;43.194;27.646;2023-04-06T08:02:02;101117.44;;;17.06;88.59
6028;BME280;3042;43.194;27.646;2023-04-06T08:04:29;101110.47;;;17.05;86.30
6028;BME280;3042;43.194;27.646;2023-04-06T08:06:57;101120.13;;;16.75;88.91
6028;BME280;3042;43.194;27.646;2023-04-06T08:09:24;101060.97;;;16.07;88.75
6028;BME280;3042;43.194;27.646;2023-04-06T08:11:51;101138.16;;;16.65;90.25
6028;BME280;3042;43.194;27.646;2023-04-06T08:14:20;101125.06;;;16.97;89.38
6028;BME280;3042;43.194;27.646;2023-04-06T08:16:47;101128.63;;;17.01;92.94
6028;BME280;3042;43.194;27.646;2023-04-06T08:19:16;101125.84;;;16.93;85.83
6028;BME280;3042;43.194;27.646;2023-04-06T08:21:44;101128.34;;;16.88;87.75
6028;BME280;3042;43.194;27.646;2023-04-06T08:24:12;100900.81;;;15.96;88.17
6028;BME280;3042;43.194;27.646;2023-04-06T08:26:40;101122.88;;;17.16;86.09
6028;BME280;3042;43.194;27.646;2023-04-06T08:29:08;101123.53;;;17.05;85.74
6028;BME280;3042;43.194;27.646;2023-04-06T08:31:37;101094.69;;;17.39;84.83
6028;BME280;3042;43.194;27.646;2023-04-06T08:34:04;101096.53;;;17.43;84.95
6028;BME280;3042;43.194;27.646;2023-04-06T08:36:33;101091.03;;;17.70;83.89
6028;BME280;3042;43.194;27.646;2023-04-06T08:39:01;101027.00;;;17.49;82.05
6028;BME280;3042;43.194;27.646;2023-04-06T08:41:28;101095.06;;;17.97;83.03
6028;BME280;3042;43.194;27.646;2023-04-06T08:43:57;101082.41;;;18.18;81.53
6028;BME280;3042;43.194;27.646;2023-04-06T08:46:25;101042.31;;;18.19;81.34
6028;BME280;3042;43.194;27.646;2023-04-06T08:48:57;101021.91;;;17.57;79.76
6028;BME280;3042;43.194;27.646;2023-04-06T08:51:25;101090.25;;;18.18;79.79
6028;BME280;3042;43.194;27.646;2023-04-06T08:53:53;101051.16;;;18.27;79.63
6028;BME280;3042;43.194;27.646;2023-04-06T08:56:21;101079.91;;;18.24;78.67
6028;BME280;3042;43.194;27.646;2023-04-06T08:58:54;101031.88;;;17.75;78.77
6028;BME280;3042;43.194;27.646;2023-04-06T09:01:26;101093.66;;;18.14;78.34
6028;BME280;3042;43.194;27.646;2023-04-06T09:03:57;101040.63;;;17.77;81.89
6028;BME280;3042;43.194;27.646;2023-04-06T09:06:25;101103.69;;;17.92;79.52
6028;BME280;3042;43.194;27.646;2023-04-06T09:08:53;101103.88;;;18.02;79.54
6028;BME280;3042;43.194;27.646;2023-04-06T09:11:21;101107.09;;;17.88;79.19
6028;BME280;3042;43.194;27.646;2023-04-06T09:13:50;101120.78;;;17.78;79.00
6028;BME280;3042;43.194;27.646;2023-04-06T09:16:17;101112.91;;;17.75;79.12
6028;BME280;3042;43.194;27.646;2023-04-06T09:18:45;101110.09;;;17.66;78.06
6028;BME280;3042;43.194;27.646;2023-04-06T09:21:17;101120.59;;;17.69;78.83
6028;BME280;3042;43.194;27.646;2023-04-06T09:23:45;100939.09;;;16.70;79.99
6028;BME280;3042;43.194;27.646;2023-04-06T09:26:15;100979.88;;;17.45;80.75
6028;BME280;3042;43.194;27.646;2023-04-06T09:28:47;101086.56;;;18.55;80.81
6028;BME280;3042;43.194;27.646;2023-04-06T09:31:15;101021.19;;;18.08;77.71
6028;BME280;3042;43.194;27.646;2023-04-06T09:33:44;101080.59;;;18.64;77.44
6028;BME280;3042;43.194;27.646;2023-04-06T09:36:13;101104.28;;;18.23;76.41
6028;BME280;3042;43.194;27.646;2023-04-06T09:38:57;101108.50;;;18.15;75.73
6028;BME280;3042;43.194;27.646;2023-04-06T09:41:25;101110.06;;;18.05;76.71
6028;BME280;3042;43.194;27.646;2023-04-06T09:44:01;101038.94;;;18.25;78.26
6028;BME280;3042;43.194;27.646;2023-04-06T09:46:31;101083.16;;;18.61;78.16
6028;BME280;3042;43.194;27.646;2023-04-06T09:49:00;100929.22;;;17.82;77.42
6028;BME280;3042;43.194;27.646;2023-04-06T09:51:35;101083.72;;;18.45;78.11
6028;BME280;3042;43.194;27.646;2023-04-06T09:54:03;101093.91;;;18.26;77.09
6028;BME280;3042;43.194;27.646;2023-04-06T09:56:33;101110.13;;;18.08;77.59
6028;BME280;3042;43.194;27.646;2023-04-06T09:59:08;101084.16;;;18.69;77.52
6028;BME280;3042;43.194;27.646;2023-04-06T10:01:38;101054.94;;;18.95;76.69
6028;BME280;3042;43.194;27.646;2023-04-06T10:04:13;101103.50;;;18.27;75.36
6028;BME280;3042;43.194;27.646;2023-04-06T10:06:47;101096.22;;;18.61;75.03
6028;BME280;3042;43.194;27.646;2023-04-06T10:09:18;101047.94;;;18.41;76.78
6028;BME280;3042;43.194;27.646;2023-04-06T10:11:48;101086.81;;;18.72;75.95
6028;BME280;3042;43.194;27.646;2023-04-06T10:14:16;101099.22;;;18.32;75.67
6028;BME280;3042;43.194;27.646;2023-04-06T10:16:44;101091.78;;;18.55;75.74
6028;BME280;3042;43.194;27.646;2023-04-06T10:19:15;101025.22;;;18.38;76.90
6028;BME280;3042;43.194;27.646;2023-04-06T10:21:50;101082.50;;;18.74;77.55
6028;BME280;3042;43.194;27.646;2023-04-06T10:24:17;101069.19;;;18.61;76.00
6028;BME280;3042;43.194;27.646;2023-04-06T10:26:57;101062.19;;;19.14;76.49
6028;BME280;3042;43.194;27.646;2023-04-06T10:29:24;100947.91;;;18.60;75.13
6028;BME280;3042;43.194;27.646;2023-04-06T10:31:52;101064.03;;;19.22;75.55
6028;BME280;3042;43.194;27.646;2023-04-06T10:34:21;101076.00;;;19.01;73.44
6028;BME280;3042;43.194;27.646;2023-04-06T10:36:49;101094.56;;;18.65;73.39
6028;BME280;3042;43.194;27.646;2023-04-06T10:39:24;101080.94;;;18.83;73.52
6028;BME280;3042;43.194;27.646;2023-04-06T10:41:51;101072.59;;;18.55;75.12
6028;BME280;3042;43.194;27.646;2023-04-06T10:44:20;101077.44;;;18.84;73.96
6028;BME280;3042;43.194;27.646;2023-04-06T10:46:55;100958.34;;;18.57;73.68
6028;BME280;3042;43.194;27.646;2023-04-06T10:49:24;101072.34;;;18.93;72.79
6028;BME280;3042;43.194;27.646;2023-04-06T10:51:54;101026.91;;;18.88;71.48
6028;BME280;3042;43.194;27.646;2023-04-06T10:54:21;101066.38;;;19.03;72.37
6028;BME280;3042;43.194;27.646;2023-04-06T10:56:50;100961.84;;;18.04;73.01
6028;BME280;3042;43.194;27.646;2023-04-06T10:59:21;100981.72;;;17.95;72.86
6028;BME280;3042;43.194;27.646;2023-04-06T11:01:50;101071.44;;;18.91;72.95
6028;BME280;3042;43.194;27.646;2023-04-06T11:04:19;101062.91;;;19.03;73.65
6028;BME280;3042;43.194;27.646;2023-04-06T11:06:47;101072.09;;;18.77;73.24
6028;BME280;3042;43.194;27.646;2023-04-06T11:09:24;101064.59;;;19.01;73.92
6028;BME280;3042;43.194;27.646;2023-04-06T11:11:53;101069.53;;;18.79;74.57
6028;BME280;3042;43.194;27.646;2023-04-06T11:14:20;101060.22;;;18.98;73.77
6028;BME280;3042;43.194;27.646;2023-04-06T11:16:48;100983.31;;;18.37;71.05
6028;BME280;3042;43.194;27.646;2023-04-06T11:19:16;101081.03;;;18.40;69.99
6028;BME280;3042;43.194;27.646;2023-04-06T11:21:45;101069.41;;;18.74;72.93
6028;BME280;3042;43.194;27.646;2023-04-06T11:24:14;101064.13;;;18.71;71.35
6028;BME280;3042;43.194;27.646;2023-04-06T11:26:45;100991.00;;;18.27;73.74
6028;BME280;3042;43.194;27.646;2023-04-06T11:29:16;100702.03;;;16.88;72.96
6028;BME280;3042;43.194;27.646;2023-04-06T11:31:46;101060.00;;;18.83;72.83
6028;BME280;3042;43.194;27.646;2023-04-06T11:34:16;101044.47;;;18.95;72.07
6028;BME280;3042;43.194;27.646;2023-04-06T11:36:45;101044.44;;;18.92;70.90
6028;BME280;3042;43.194;27.646;2023-04-06T11:39:18;101025.75;;;19.30;72.67
6028;BME280;3042;43.194;27.646;2023-04-06T11:41:49;100965.34;;;19.17;72.82
6028;BME280;3042;43.194;27.646;2023-04-06T11:44:28;101013.84;;;19.56;72.39
6028;BME280;3042;43.194;27.646;2023-04-06T11:46:57;101026.75;;;19.43;71.67
6028;BME280;3042;43.194;27.646;2023-04-06T11:49:28;101007.84;;;19.67;70.79
6028;BME280;3042;43.194;27.646;2023-04-06T11:51:58;100934.56;;;19.01;69.96
6028;BME280;3042;43.194;27.646;2023-04-06T11:54:33;101030.72;;;19.11;70.70
6028;BME280;3042;43.194;27.646;2023-04-06T11:57:03;101028.94;;;19.10;70.94
6028;BME280;3042;43.194;27.646;2023-04-06T11:59:31;101034.09;;;19.01;71.06
6028;BME280;3042;43.194;27.646;2023-04-06T12:01:58;101034.81;;;18.94;70.96
6028;BME280;3042;43.194;27.646;2023-04-06T12:04:26;101031.34;;;18.92;70.39
6028;BME280;3042;43.194;27.646;2023-04-06T12:06:53;101002.59;;;18.98;71.64
6028;BME280;3042;43.194;27.646;2023-04-06T12:09:20;101018.59;;;19.19;71.74
6028;BME280;3042;43.194;27.646;2023-04-06T12:11:48;101022.22;;;19.28;70.83
6028;BME280;3042;43.194;27.646;2023-04-06T12:14:16;101013.53;;;19.32;70.44
6028;BME280;3042;43.194;27.646;2023-04-06T12:16:43;101009.41;;;19.51;71.52
6028;BME280;3042;43.194;27.646;2023-04-06T12:19:11;101005.16;;;19.64;71.55
6028;BME280;3042;43.194;27.646;2023-04-06T12:21:38;101011.13;;;19.49;71.39
6028;BME280;3042;43.194;27.646;2023-04-06T12:24:06;100984.31;;;19.70;72.27
6028;BME280;3042;43.194;27.646;2023-04-06T12:26:34;100993.41;;;20.09;71.89
6028;BME280;3042;43.194;27.646;2023-04-06T12:29:01;100989.94;;;20.07;69.97
6028;BME280;3042;43.194;27.646;2023-04-06T12:31:34;100980.50;;;20.32;70.53
6028;BME280;3042;43.194;27.646;2023-04-06T12:34:02;100917.28;;;19.98;70.35
6028;BME280;3042;43.194;27.646;2023-04-06T12:36:41;100971.13;;;20.57;69.82
6028;BME280;3042;43.194;27.646;2023-04-06T12:39:15;100971.16;;;20.64;69.80
6028;BME280;3042;43.194;27.646;2023-04-06T12:41:48;100915.88;;;20.48;69.42
6028;BME280;3042;43.194;27.646;2023-04-06T12:44:26;100861.47;;;20.22;68.73
6028;BME280;3042;43.194;27.646;2023-04-06T12:47:00;100973.84;;;20.74;69.18
6028;BME280;3042;43.194;27.646;2023-04-06T12:49:29;100803.28;;;19.57;67.88
6028;BME280;3042;43.194;27.646;2023-04-06T12:51:57;100998.03;;;20.33;68.11
6028;BME280;3042;43.194;27.646;2023-04-06T12:54:24;101033.28;;;19.72;69.40
6028;BME280;3042;43.194;27.646;2023-04-06T12:56:52;101016.19;;;20.10;69.77
6028;BME280;3042;43.194;27.646;2023-04-06T12:59:19;100863.25;;;19.28;69.10
6028;BME280;3042;43.194;27.646;2023-04-06T13:01:47;101014.19;;;19.87;68.11